Flight Track Log - Related Links

Times and Time Zones

All times are in EDT time to prevent confusion due to time zone crossing. See the SWA3321 flight status page for this flight to view local times or setup timezone preferences in your user account.

Time Position Orientation Groundspeed Altitude Reporting Facility
EDT Latitude Longitude Course Direction KTS MPH feet Rate Location/Type
Tue 06:44:44 AM 42.9500 -71.4167 15° North 161 185 1,200  Level KA90
Tue 06:45:59 AM 43.0167 -71.3922 15° North 228 262 3,800 2,471 Climbing Boston Center
Tue 06:47:00 AM 43.0464 -71.4542 303° West 162 186 6,800 3,176 Climbing Boston Center
Tue 06:47:58 AM 43.0514 -71.5394 275° West 227 261 10,100 3,500 Climbing Boston Center
Tue 06:49:00 AM 43.0667 -71.6417 282° West 438 504 13,800 3,322 Climbing Boston Center
Tue 06:49:59 AM 43.1006 -71.7236 300° West 442 509 16,800 3,000 Climbing Boston Center
Tue 06:50:58 AM 43.1697 -71.8025 320° Northwest 364 419 19,700 2,750 Climbing Boston Center
Tue 06:51:59 AM 43.2264 -71.8703 319° Northwest 321 369 22,300 2,450 Climbing Boston Center
Tue 06:52:58 AM 43.2289 -71.9814 272° West 270 311 24,600 2,231 Climbing Boston Center
Tue 06:54:00 AM 43.2106 -72.0983 258° West 276 318 26,800 1,770 Climbing Boston Center
Tue 06:55:00 AM 43.1733 -72.2067 245° Southwest 306 352 28,200 1,190 Climbing Boston Center
Tue 06:56:01 AM 43.1131 -72.3206 234° Southwest 318 366 29,200 1,271 Climbing Boston Center
Tue 06:56:58 AM 43.0444 -72.4344 231° Southwest 356 410 30,700 1,795 Climbing Boston Center
Tue 06:57:58 AM 42.9733 -72.5422 228° Southwest 378 435 32,700 1,850 Climbing Boston Center
Tue 06:58:58 AM 42.8961 -72.6525 226° Southwest 391 450 34,400 1,537 Climbing Boston Center
Tue 06:59:59 AM 42.8356 -72.7431 228° Southwest 391 450 35,800 1,240 Climbing Boston Center
Tue 07:00:59 AM 42.8061 -72.8675 252° West 354 407 36,900 645 Climbing Boston Center
Tue 07:02:00 AM 42.8617 -72.9867 302° West 324 373 37,100 403 Climbing Boston Center
Tue 07:02:58 AM 42.9153 -73.1175 299° West 351 404 37,700 454 Climbing Boston Center
Tue 07:03:59 AM 42.9267 -73.2622 276° West 367 422 38,000 150 Climbing Boston Center
Tue 07:04:58 AM 42.9381 -73.4214 276° West 385 443 38,000  Level Boston Center
Tue 07:05:58 AM 42.9533 -73.5664 278° West 385 443 38,000  Level Boston Center
Tue 07:06:58 AM 42.9644 -73.7111 276° West 390 449 38,000 -500 Level Boston Center
Tue 07:07:58 AM 42.9794 -73.8506 278° West 385 443 37,000 -992 Descending Boston Center
Tue 07:08:59 AM 42.9900 -73.9869 276° West 374 430 36,000 -492 Descending Boston Center
Tue 07:10:00 AM 43.0011 -74.0953 278° West 369 425 36,000  Level Boston Center
Tue 07:10:58 AM 43.0133 -74.2461 276° West 369 425 36,000  Level Boston Center
Tue 07:11:59 AM 43.0236 -74.3828 276° West 369 425 36,000  Level Boston Center
Tue 07:12:59 AM 43.0358 -74.5222 277° West 369 425 36,000  Level Boston Center
Tue 07:13:59 AM 43.0478 -74.6619 277° West 369 425 36,000  Level Boston Center
Tue 07:15:00 AM 43.0594 -74.8017 277° West 369 425 36,000  Level Boston Center
Tue 07:15:58 AM 43.0692 -74.9383 276° West 369 425 36,000  Level Boston Center
Tue 07:16:58 AM 43.0783 -75.0781 275° West 369 425 36,000  Level Boston Center
Tue 07:18:00 AM 43.0878 -75.2150 275° West 369 425 36,000  Level Boston Center
Tue 07:19:00 AM 43.1011 -75.3492 278° West 369 425 36,000  Level Boston Center
Tue 07:20:00 AM 43.1100 -75.4833 275° West 369 425 36,000  Level Boston Center
Tue 07:20:58 AM 43.1208 -75.6206 276° West 369 425 36,000  Level Boston Center
Tue 07:21:58 AM 43.1297 -75.7519 275° West 364 419 36,000  Level Boston Center
Tue 07:22:59 AM 43.1214 -75.8881 265° West 364 419 36,000  Level Boston Center
Tue 07:24:00 AM 43.0967 -76.0203 256° West 359 413 36,000  Level Boston Center
Tue 07:26:20 AM 43.0289 -76.3539 255° West 373 429 36,000  Level Cleveland Center
Tue 07:27:21 AM 43.0047 -76.4917 257° West 373 429 36,000  Level Cleveland Center
Tue 07:28:20 AM 42.9783 -76.6269 255° West 373 429 36,000  Level Cleveland Center
Tue 07:29:20 AM 42.9475 -76.7650 253° West 373 429 36,000  Level Cleveland Center
Tue 07:30:20 AM 42.9206 -76.9000 255° West 379 436 36,000 50 Level Cleveland Center
Tue 07:31:20 AM 42.8936 -77.0350 255° West 379 436 36,100 750 Climbing Cleveland Center
Tue 07:32:20 AM 42.8536 -77.1647 247° West 379 436 37,500 950 Climbing Cleveland Center
Tue 07:33:20 AM 42.8114 -77.2942 246° West 379 436 38,000 248 Climbing Cleveland Center
Tue 07:34:21 AM 42.7692 -77.4239 246° West 379 436 38,000  Level Cleveland Center
Tue 07:35:21 AM 42.7228 -77.5592 245° Southwest 384 442 38,000  Level Cleveland Center
Tue 07:36:20 AM 42.6803 -77.6883 246° West 391 450 38,000  Level Cleveland Center
Tue 07:37:20 AM 42.6453 -77.7942 246° West 386 444 38,000  Level Cleveland Center
Tue 07:38:21 AM 42.5967 -77.9403 246° West 386 444 38,000 200 Level Cleveland Center
Tue 07:39:20 AM 42.5517 -78.0719 245° Southwest 386 444 38,400 403 Climbing Cleveland Center
Tue 07:40:20 AM 42.5067 -78.2033 245° Southwest 386 444 38,800 298 Climbing Cleveland Center
Tue 07:41:21 AM 42.4614 -78.3372 245° Southwest 386 444 39,000 100 Climbing Cleveland Center
Tue 07:42:20 AM 42.4161 -78.4767 246° West 396 456 39,000  Level Cleveland Center
Tue 07:43:20 AM 42.3683 -78.6075 244° Southwest 396 456 39,000  Level Cleveland Center
Tue 07:44:21 AM 42.3225 -78.7381 245° Southwest 396 456 39,000  Level Cleveland Center
Tue 07:45:21 AM 42.2786 -78.8714 246° West 391 450 39,000  Level Cleveland Center
Tue 07:46:21 AM 42.2286 -79.0100 244° Southwest 386 444 39,000  Level Cleveland Center
Tue 07:47:20 AM 42.1906 -79.1231 246° West 386 444 39,000  Level Cleveland Center
Tue 07:48:20 AM 42.1586 -79.2469 251° West 371 427 39,000  Level Cleveland Center
Tue 07:49:20 AM 42.1244 -79.3711 250° West 366 421 39,000  Level Cleveland Center
Tue 07:50:21 AM 42.0925 -79.4975 251° West 360 414 39,000  Level Cleveland Center
Tue 07:51:20 AM 42.0581 -79.6267 250° West 360 414 39,000  Level Cleveland Center
Tue 07:52:21 AM 42.0258 -79.7558 251° West 365 420 39,000  Level Cleveland Center
Tue 07:53:20 AM 41.9892 -79.8847 249° West 370 426 39,000  Level Cleveland Center
Tue 07:54:21 AM 41.9544 -80.0136 250° West 365 420 39,000  Level Cleveland Center
Tue 07:55:21 AM 41.9217 -80.1422 251° West 365 420 39,000  Level Cleveland Center
Tue 07:56:21 AM 41.8844 -80.2708 249° West 370 426 39,000  Level Cleveland Center
Tue 07:57:21 AM 41.8514 -80.3992 251° West 370 426 39,000  Level Cleveland Center
Tue 07:58:20 AM 41.8142 -80.5414 251° West 370 426 39,000  Level Cleveland Center
Tue 07:59:21 AM 41.7786 -80.6722 250° West 364 419 39,000  Level Cleveland Center
Tue 08:00:21 AM 41.7408 -80.8003 248° West 372 428 39,000  Level Cleveland Center
Tue 08:01:21 AM 41.7050 -80.9336 250° West 372 428 39,000  Level Cleveland Center
Tue 08:02:20 AM 41.6692 -81.0639 250° West 372 428 39,000  Level Cleveland Center
Tue 08:03:20 AM 41.6331 -81.1969 250° West 372 428 39,000 -446 Level Cleveland Center
Tue 08:04:21 AM 41.5742 -81.3131 236° Southwest 372 428 38,100 -496 Descending Cleveland Center
Tue 08:05:21 AM 41.4983 -81.4231 227° Southwest 398 458 38,000 -50 Descending Cleveland Center
Tue 08:06:20 AM 41.4222 -81.5356 228° Southwest 410 472 38,000  Level Cleveland Center
Tue 08:07:20 AM 41.3547 -81.6369 228° Southwest 410 472 38,000  Level Cleveland Center
Tue 08:08:21 AM 41.2808 -81.7464 228° Southwest 410 472 38,000  Level Cleveland Center
Tue 08:09:20 AM 41.2086 -81.8611 230° Southwest 410 472 38,000  Level Cleveland Center
Tue 08:10:20 AM 41.1344 -81.9753 229° Southwest 410 472 38,000  Level Cleveland Center
Tue 08:11:21 AM 41.0658 -82.1144 237° Southwest 415 478 38,000  Level Cleveland Center
Tue 08:12:20 AM 41.1039 -82.2336 293° West 331 381 38,000  Level Cleveland Center
Tue 08:13:21 AM 41.1731 -82.3319 313° West 338 389 38,000  Level Cleveland Center
Tue 08:14:21 AM 41.2425 -82.4306 313° West 357 411 38,000  Level Cleveland Center
Tue 08:15:20 AM 41.3058 -82.5181 314° West 362 417 38,000 -500 Level Cleveland Center
Tue 08:16:21 AM 41.3728 -82.6169 312° West 367 422 37,000 -950 Descending Cleveland Center
Tue 08:17:20 AM 41.4378 -82.7103 313° West 353 406 36,100 -504 Descending Cleveland Center
Tue 08:18:20 AM 41.5089 -82.8069 315° West 353 406 36,000 -50 Descending Cleveland Center
Tue 08:19:21 AM 41.5800 -82.9011 315° West 353 406 36,000  Level Cleveland Center
Tue 08:20:20 AM 41.6422 -83.0172 306° West 353 406 36,000  Level Cleveland Center
Tue 08:21:21 AM 41.6267 -83.1528 261° West 358 412 36,000  Level Cleveland Center
Tue 08:22:21 AM 41.6133 -83.2883 263° West 358 412 36,000  Level Cleveland Center
Tue 08:23:21 AM 41.6014 -83.4267 263° West 370 426 36,000  Level Cleveland Center
Tue 08:24:20 AM 41.5856 -83.5647 261° West 370 426 36,000  Level Cleveland Center
Tue 08:25:21 AM 41.5733 -83.7031 263° West 375 432 36,000 -337 Level Cleveland Center
Tue 08:27:18 AM 41.5497 -83.9747 263° West 381 438 35,000 -640 Descending Chicago Center
Tue 08:28:19 AM 41.5364 -84.1206 263° West 393 452 34,100 -976 Descending Chicago Center
Tue 08:29:21 AM 41.5214 -84.2600 262° West 386 444 33,000 -1,016 Descending Chicago Center
Tue 08:30:23 AM 41.5078 -84.3931 262° West 370 426 32,000 -1,073 Descending Chicago Center
Tue 08:31:24 AM 41.4931 -84.5275 262° West 367 422 30,800 -976 Descending Chicago Center
Tue 08:32:26 AM 41.4800 -84.6625 263° West 367 422 30,000 -390 Descending Chicago Center
Tue 08:33:27 AM 41.4872 -84.8022 274° West 376 433 30,000  Level Chicago Center
Tue 08:34:29 AM 41.4914 -84.9419 272° West 377 434 30,000 -98 Level Chicago Center
Tue 08:35:30 AM 41.4961 -85.0797 273° West 373 429 29,800 -1,659 Descending Chicago Center
Tue 08:36:32 AM 41.5008 -85.2372 272° West 352 405 26,600 -2,516 Descending Chicago Center
Tue 08:37:34 AM 41.5053 -85.3806 272° West 376 433 24,600 -2,293 Descending Chicago Center
Tue 08:38:35 AM 41.5094 -85.5181 272° West 362 417 21,900 -2,390 Descending Chicago Center
Tue 08:39:37 AM 41.5136 -85.6497 272° West 353 406 19,700 -1,561 Descending Chicago Center
Tue 08:40:38 AM 41.5178 -85.7756 273° West 341 392 18,700 -976 Descending Chicago Center
Tue 08:41:40 AM 41.5208 -85.9025 272° West 342 394 17,700 -1,561 Descending Chicago Center
Tue 08:42:41 AM 41.5242 -86.0286 272° West 341 392 15,500 -1,805 Descending Chicago Center
Tue 08:43:43 AM 41.5236 -86.1517 270° West 333 383 14,000 -1,902 Descending Chicago Center
Tue 08:44:44 AM 41.5236 -86.2700 270° West 323 372 11,600 -1,854 Descending Chicago Center
Tue 08:45:46 AM 41.5225 -86.3903 269° West 325 374 10,200 -774 Descending Chicago Center
Tue 08:46:48 AM 41.5211 -86.5311 269° West 318 366 10,000 -98 Descending Chicago Center
Tue 08:47:49 AM 41.5206 -86.6467 270° West 312 359 10,000 -341 Level Chicago Center
Tue 08:48:51 AM 41.5197 -86.7531 269° West 275 316 9,300 -1,122 Descending Chicago Center
Tue 08:49:52 AM 41.5194 -86.8528 270° West 270 311 7,700 -1,317 Descending Chicago Center
Tue 08:50:54 AM 41.5183 -86.9536 269° West 274 315 6,600 -829 Descending Chicago Center
Tue 08:51:55 AM 41.5275 -87.0508 277° West 268 308 6,000 -378 Descending Chicago Center
Tue 08:52:45 AM 41.5333 -87.1333 275° West 267 307 5,900 -58 Descending Chicago TRACON
Tue 08:53:39 AM 41.5500 -87.2333 283° West 271 312 5,900  Level Chicago TRACON
Tue 08:54:45 AM 41.5667 -87.3333 283° West 269 310 5,900 -600 Level Chicago TRACON
Tue 08:55:39 AM 41.5833 -87.4167 285° West 267 307 4,700 -1,325 Descending Chicago TRACON
Tue 08:56:02 AM 41.5869 -87.4567 277° West 268 308 4,200 -929 Descending Chicago Center
Tue 08:57:03 AM 41.6006 -87.5511 281° West 265 305 3,400 -585 Descending Chicago Center
Tue 08:58:05 AM 41.6139 -87.6456 281° West 263 303 3,000 -194 Descending Chicago Center
Tue 08:59:07 AM 41.6256 -87.7403 279° West 262 302 3,000  Level Chicago Center
Tue 09:00:08 AM 41.6172 -87.8281 263° West 251 289 3,000 -244 Level Chicago Center
Tue 09:01:10 AM 41.6700 -87.8858 321° Northwest 248 285 2,500 -306 Descending Chicago Center
Tue 09:01:46 AM 41.7000 -87.8500 42° Northeast 246 283 2,500 -375 Level Chicago TRACON
Tue 09:02:46 AM 41.7500 -87.8000 37° Northeast 186 214 1,900 -842 Descending Chicago TRACON
Tue 09:03:40 AM 41.7667 -87.7667 56° Northeast 132 152 900 -1,111 Descending Chicago TRACON

Login

Don't have an account? Register now (free) for customized features, flight alerts, and more!